sensor_id;sensor_type;location;lat;lon;timestamp;temperature;humidity
26537;DHT22;14204;51.262;5.488;2022-11-21T00:00:17;8.50;99.90
26537;DHT22;14204;51.262;5.488;2022-11-21T00:02:43;8.60;99.90
26537;DHT22;14204;51.262;5.488;2022-11-21T00:05:09;8.60;99.90
26537;DHT22;14204;51.262;5.488;2022-11-21T00:07:34;8.50;99.90
26537;DHT22;14204;51.262;5.488;2022-11-21T00:10:00;8.50;99.90
26537;DHT22;14204;51.262;5.488;2022-11-21T00:12:26;8.60;99.90
26537;DHT22;14204;51.262;5.488;2022-11-21T00:14:51;8.50;99.90
26537;DHT22;14204;51.262;5.488;2022-11-21T00:17:17;8.50;99.90
26537;DHT22;14204;51.262;5.488;2022-11-21T00:19:43;8.50;99.90
26537;DHT22;14204;51.262;5.488;2022-11-21T00:22:09;8.50;99.90
26537;DHT22;14204;51.262;5.488;2022-11-21T00:24:35;8.50;99.90
26537;DHT22;14204;51.262;5.488;2022-11-21T00:27:01;8.50;99.90
26537;DHT22;14204;51.262;5.488;2022-11-21T00:29:27;8.50;99.90
26537;DHT22;14204;51.262;5.488;2022-11-21T00:31:53;8.50;99.90
26537;DHT22;14204;51.262;5.488;2022-11-21T00:34:19;8.50;99.90
26537;DHT22;14204;51.262;5.488;2022-11-21T00:36:44;8.50;99.90
26537;DHT22;14204;51.262;5.488;2022-11-21T00:39:10;8.50;99.90
26537;DHT22;14204;51.262;5.488;2022-11-21T00:41:36;8.40;99.90
26537;DHT22;14204;51.262;5.488;2022-11-21T00:44:01;8.40;99.90
26537;DHT22;14204;51.262;5.488;2022-11-21T00:46:27;8.40;99.90
26537;DHT22;14204;51.262;5.488;2022-11-21T00:48:53;8.40;99.90
26537;DHT22;14204;51.262;5.488;2022-11-21T00:51:18;8.30;99.90
26537;DHT22;14204;51.262;5.488;2022-11-21T00:53:44;8.40;99.90
26537;DHT22;14204;51.262;5.488;2022-11-21T00:56:09;8.40;99.90
26537;DHT22;14204;51.262;5.488;2022-11-21T00:58:35;8.40;99.90
26537;DHT22;14204;51.262;5.488;2022-11-21T01:01:06;8.40;99.90
26537;DHT22;14204;51.262;5.488;2022-11-21T01:03:33;8.50;99.90
26537;DHT22;14204;51.262;5.488;2022-11-21T01:06:04;8.50;99.90
26537;DHT22;14204;51.262;5.488;2022-11-21T01:08:30;8.40;99.90
26537;DHT22;14204;51.262;5.488;2022-11-21T01:11:00;8.50;99.90
26537;DHT22;14204;51.262;5.488;2022-11-21T01:13:26;8.50;99.90
26537;DHT22;14204;51.262;5.488;2022-11-21T01:15:51;8.50;99.90
26537;DHT22;14204;51.262;5.488;2022-11-21T01:18:17;8.50;99.90
26537;DHT22;14204;51.262;5.488;2022-11-21T01:20:42;8.50;99.90
26537;DHT22;14204;51.262;5.488;2022-11-21T01:23:08;8.50;99.90
26537;DHT22;14204;51.262;5.488;2022-11-21T01:25:34;8.40;99.90
26537;DHT22;14204;51.262;5.488;2022-11-21T01:28:05;8.50;99.90
26537;DHT22;14204;51.262;5.488;2022-11-21T01:30:31;8.50;99.90
26537;DHT22;14204;51.262;5.488;2022-11-21T01:32:56;8.50;99.90
26537;DHT22;14204;51.262;5.488;2022-11-21T01:35:22;8.50;99.90
26537;DHT22;14204;51.262;5.488;2022-11-21T01:37:50;8.50;99.90
26537;DHT22;14204;51.262;5.488;2022-11-21T01:40:16;8.50;99.90
26537;DHT22;14204;51.262;5.488;2022-11-21T01:42:59;8.50;99.90
26537;DHT22;14204;51.262;5.488;2022-11-21T01:45:52;8.50;99.90
26537;DHT22;14204;51.262;5.488;2022-11-21T01:50:57;8.50;99.90
26537;DHT22;14204;51.262;5.488;2022-11-21T01:53:24;8.50;99.90
26537;DHT22;14204;51.262;5.488;2022-11-21T01:55:50;8.50;99.90
26537;DHT22;14204;51.262;5.488;2022-11-21T01:58:16;8.40;99.90
26537;DHT22;14204;51.262;5.488;2022-11-21T02:00:44;8.50;99.90
26537;DHT22;14204;51.262;5.488;2022-11-21T02:03:13;8.50;99.90
26537;DHT22;14204;51.262;5.488;2022-11-21T02:05:40;8.40;99.90
26537;DHT22;14204;51.262;5.488;2022-11-21T02:08:09;8.40;99.90
26537;DHT22;14204;51.262;5.488;2022-11-21T02:10:42;8.40;99.90
26537;DHT22;14204;51.262;5.488;2022-11-21T02:13:10;8.50;99.90
26537;DHT22;14204;51.262;5.488;2022-11-21T02:15:37;8.50;99.90
26537;DHT22;14204;51.262;5.488;2022-11-21T02:18:07;8.60;99.90
26537;DHT22;14204;51.262;5.488;2022-11-21T02:20:33;8.60;99.90
26537;DHT22;14204;51.262;5.488;2022-11-21T02:23:18;8.60;99.90
26537;DHT22;14204;51.262;5.488;2022-11-21T02:25:44;8.60;99.90
26537;DHT22;14204;51.262;5.488;2022-11-21T02:28:14;8.70;99.90
26537;DHT22;14204;51.262;5.488;2022-11-21T02:30:41;8.70;99.90
26537;DHT22;14204;51.262;5.488;2022-11-21T02:33:08;8.70;99.90
26537;DHT22;14204;51.262;5.488;2022-11-21T02:35:34;8.70;99.90
26537;DHT22;14204;51.262;5.488;2022-11-21T02:38:13;8.70;99.90
26537;DHT22;14204;51.262;5.488;2022-11-21T02:40:47;8.70;99.90
26537;DHT22;14204;51.262;5.488;2022-11-21T02:43:28;8.70;99.90
26537;DHT22;14204;51.262;5.488;2022-11-21T02:45:55;8.60;99.90
26537;DHT22;14204;51.262;5.488;2022-11-21T02:48:20;8.60;99.90
26537;DHT22;14204;51.262;5.488;2022-11-21T02:50:46;8.60;99.90
26537;DHT22;14204;51.262;5.488;2022-11-21T02:53:15;8.60;99.90
26537;DHT22;14204;51.262;5.488;2022-11-21T02:55:41;8.60;99.90
26537;DHT22;14204;51.262;5.488;2022-11-21T02:58:07;8.60;99.90
26537;DHT22;14204;51.262;5.488;2022-11-21T03:00:34;8.60;99.90
26537;DHT22;14204;51.262;5.488;2022-11-21T03:03:00;8.50;99.90
26537;DHT22;14204;51.262;5.488;2022-11-21T03:05:26;8.50;99.90
26537;DHT22;14204;51.262;5.488;2022-11-21T03:07:52;8.50;99.90
26537;DHT22;14204;51.262;5.488;2022-11-21T03:10:18;8.50;99.90
26537;DHT22;14204;51.262;5.488;2022-11-21T03:12:43;8.50;99.90
26537;DHT22;14204;51.262;5.488;2022-11-21T03:15:11;8.50;99.90
26537;DHT22;14204;51.262;5.488;2022-11-21T03:17:37;8.50;99.90
26537;DHT22;14204;51.262;5.488;2022-11-21T03:20:04;8.40;99.90
26537;DHT22;14204;51.262;5.488;2022-11-21T03:22:30;8.40;99.90
26537;DHT22;14204;51.262;5.488;2022-11-21T03:24:55;8.40;99.90
26537;DHT22;14204;51.262;5.488;2022-11-21T03:27:21;8.30;99.90
26537;DHT22;14204;51.262;5.488;2022-11-21T03:29:47;8.30;99.90
26537;DHT22;14204;51.262;5.488;2022-11-21T03:32:12;8.20;99.90
26537;DHT22;14204;51.262;5.488;2022-11-21T03:34:38;8.30;99.90
26537;DHT22;14204;51.262;5.488;2022-11-21T03:37:04;8.30;99.90
26537;DHT22;14204;51.262;5.488;2022-11-21T03:39:29;8.30;99.90
26537;DHT22;14204;51.262;5.488;2022-11-21T03:41:55;8.20;99.90
26537;DHT22;14204;51.262;5.488;2022-11-21T03:44:21;8.10;99.90
26537;DHT22;14204;51.262;5.488;2022-11-21T03:46:47;8.10;99.90
26537;DHT22;14204;51.262;5.488;2022-11-21T03:49:13;8.10;99.90
26537;DHT22;14204;51.262;5.488;2022-11-21T03:51:40;8.10;99.90
26537;DHT22;14204;51.262;5.488;2022-11-21T03:54:05;8.10;99.90
26537;DHT22;14204;51.262;5.488;2022-11-21T03:56:31;8.10;99.90
26537;DHT22;14204;51.262;5.488;2022-11-21T03:58:57;8.10;99.90
26537;DHT22;14204;51.262;5.488;2022-11-21T04:01:24;8.10;99.90
26537;DHT22;14204;51.262;5.488;2022-11-21T04:03:50;8.10;99.90
26537;DHT22;14204;51.262;5.488;2022-11-21T04:06:17;8.10;99.90
26537;DHT22;14204;51.262;5.488;2022-11-21T04:08:43;8.00;99.90
26537;DHT22;14204;51.262;5.488;2022-11-21T04:11:09;8.10;99.90
26537;DHT22;14204;51.262;5.488;2022-11-21T04:13:35;8.10;99.90
26537;DHT22;14204;51.262;5.488;2022-11-21T04:16:00;8.10;99.90
26537;DHT22;14204;51.262;5.488;2022-11-21T04:18:26;8.10;99.90
26537;DHT22;14204;51.262;5.488;2022-11-21T04:20:59;8.20;99.90
26537;DHT22;14204;51.262;5.488;2022-11-21T04:23:25;8.20;99.90
26537;DHT22;14204;51.262;5.488;2022-11-21T04:25:51;8.10;99.90
26537;DHT22;14204;51.262;5.488;2022-11-21T04:28:17;8.10;99.90
26537;DHT22;14204;51.262;5.488;2022-11-21T04:30:43;8.10;99.90
26537;DHT22;14204;51.262;5.488;2022-11-21T04:33:09;8.00;99.90
26537;DHT22;14204;51.262;5.488;2022-11-21T04:35:35;8.00;99.90
26537;DHT22;14204;51.262;5.488;2022-11-21T04:38:01;8.10;99.90
26537;DHT22;14204;51.262;5.488;2022-11-21T04:40:27;8.10;99.90
26537;DHT22;14204;51.262;5.488;2022-11-21T04:42:52;8.00;99.90
26537;DHT22;14204;51.262;5.488;2022-11-21T04:45:18;8.10;99.90
26537;DHT22;14204;51.262;5.488;2022-11-21T04:47:45;8.10;99.90
26537;DHT22;14204;51.262;5.488;2022-11-21T04:50:13;8.10;99.90
26537;DHT22;14204;51.262;5.488;2022-11-21T04:52:39;8.20;99.90
26537;DHT22;14204;51.262;5.488;2022-11-21T04:55:05;8.20;99.90
26537;DHT22;14204;51.262;5.488;2022-11-21T04:57:31;8.20;99.90
26537;DHT22;14204;51.262;5.488;2022-11-21T04:59:57;8.20;99.90
26537;DHT22;14204;51.262;5.488;2022-11-21T05:02:23;8.20;99.90
26537;DHT22;14204;51.262;5.488;2022-11-21T05:04:49;8.20;99.90
26537;DHT22;14204;51.262;5.488;2022-11-21T05:07:15;8.20;99.90
26537;DHT22;14204;51.262;5.488;2022-11-21T05:09:41;8.20;99.90
26537;DHT22;14204;51.262;5.488;2022-11-21T05:12:09;8.30;99.90
26537;DHT22;14204;51.262;5.488;2022-11-21T05:14:54;8.30;99.90
26537;DHT22;14204;51.262;5.488;2022-11-21T05:17:20;8.30;99.90
26537;DHT22;14204;51.262;5.488;2022-11-21T05:19:45;8.30;99.90
26537;DHT22;14204;51.262;5.488;2022-11-21T05:22:11;8.40;99.90
26537;DHT22;14204;51.262;5.488;2022-11-21T05:24:37;8.30;99.90
26537;DHT22;14204;51.262;5.488;2022-11-21T05:27:03;8.30;99.90
26537;DHT22;14204;51.262;5.488;2022-11-21T05:29:28;8.30;99.90
26537;DHT22;14204;51.262;5.488;2022-11-21T05:31:54;8.30;99.90
26537;DHT22;14204;51.262;5.488;2022-11-21T05:34:20;8.30;99.90
26537;DHT22;14204;51.262;5.488;2022-11-21T05:36:45;8.30;99.90
26537;DHT22;14204;51.262;5.488;2022-11-21T05:39:11;8.20;99.90
26537;DHT22;14204;51.262;5.488;2022-11-21T05:41:37;8.30;99.90
26537;DHT22;14204;51.262;5.488;2022-11-21T05:44:02;8.30;99.90
26537;DHT22;14204;51.262;5.488;2022-11-21T05:46:28;8.30;99.90
26537;DHT22;14204;51.262;5.488;2022-11-21T05:48:54;8.30;99.90
26537;DHT22;14204;51.262;5.488;2022-11-21T05:51:20;8.30;99.90
26537;DHT22;14204;51.262;5.488;2022-11-21T05:53:46;8.20;99.90
26537;DHT22;14204;51.262;5.488;2022-11-21T05:56:17;8.30;99.90
26537;DHT22;14204;51.262;5.488;2022-11-21T05:58:43;8.20;99.90
26537;DHT22;14204;51.262;5.488;2022-11-21T06:01:10;8.30;99.90
26537;DHT22;14204;51.262;5.488;2022-11-21T06:03:38;8.30;99.90
26537;DHT22;14204;51.262;5.488;2022-11-21T06:11:04;8.30;99.90
26537;DHT22;14204;51.262;5.488;2022-11-21T06:13:30;8.30;99.90
26537;DHT22;14204;51.262;5.488;2022-11-21T06:15:59;8.30;99.90
26537;DHT22;14204;51.262;5.488;2022-11-21T06:18:25;8.30;99.90
26537;DHT22;14204;51.262;5.488;2022-11-21T06:20:51;8.20;99.90
26537;DHT22;14204;51.262;5.488;2022-11-21T06:23:17;8.30;99.90
26537;DHT22;14204;51.262;5.488;2022-11-21T06:25:43;8.30;99.90
26537;DHT22;14204;51.262;5.488;2022-11-21T06:28:09;8.30;99.90
26537;DHT22;14204;51.262;5.488;2022-11-21T06:30:35;8.30;99.90
26537;DHT22;14204;51.262;5.488;2022-11-21T06:33:05;8.30;99.90
26537;DHT22;14204;51.262;5.488;2022-11-21T06:35:31;8.20;99.90
26537;DHT22;14204;51.262;5.488;2022-11-21T06:37:56;8.20;99.90
26537;DHT22;14204;51.262;5.488;2022-11-21T06:40:23;8.20;99.90
26537;DHT22;14204;51.262;5.488;2022-11-21T06:42:49;8.20;99.90
26537;DHT22;14204;51.262;5.488;2022-11-21T06:45:14;8.20;99.90
26537;DHT22;14204;51.262;5.488;2022-11-21T06:47:40;8.30;99.90
26537;DHT22;14204;51.262;5.488;2022-11-21T06:50:06;8.20;99.90
26537;DHT22;14204;51.262;5.488;2022-11-21T06:52:32;8.20;99.90
26537;DHT22;14204;51.262;5.488;2022-11-21T06:54:58;8.20;99.90
26537;DHT22;14204;51.262;5.488;2022-11-21T06:57:24;8.30;99.90
26537;DHT22;14204;51.262;5.488;2022-11-21T06:59:49;8.20;99.90
26537;DHT22;14204;51.262;5.488;2022-11-21T07:02:15;8.20;99.90
26537;DHT22;14204;51.262;5.488;2022-11-21T07:04:41;8.20;99.90
26537;DHT22;14204;51.262;5.488;2022-11-21T07:07:06;8.20;99.90
26537;DHT22;14204;51.262;5.488;2022-11-21T07:09:32;8.20;99.90
26537;DHT22;14204;51.262;5.488;2022-11-21T07:12:00;8.20;99.90
26537;DHT22;14204;51.262;5.488;2022-11-21T07:14:46;8.20;99.90
26537;DHT22;14204;51.262;5.488;2022-11-21T07:17:13;8.10;99.90
26537;DHT22;14204;51.262;5.488;2022-11-21T07:19:39;8.20;99.90
26537;DHT22;14204;51.262;5.488;2022-11-21T07:22:05;8.30;99.90
26537;DHT22;14204;51.262;5.488;2022-11-21T07:24:31;8.20;99.90
26537;DHT22;14204;51.262;5.488;2022-11-21T07:26:57;8.20;99.90
26537;DHT22;14204;51.262;5.488;2022-11-21T07:29:23;8.20;99.90
26537;DHT22;14204;51.262;5.488;2022-11-21T07:31:49;8.20;99.90
26537;DHT22;14204;51.262;5.488;2022-11-21T07:34:15;8.30;99.90
26537;DHT22;14204;51.262;5.488;2022-11-21T07:36:40;8.30;99.90
26537;DHT22;14204;51.262;5.488;2022-11-21T07:39:06;8.30;99.90
26537;DHT22;14204;51.262;5.488;2022-11-21T07:41:32;8.30;99.90
26537;DHT22;14204;51.262;5.488;2022-11-21T07:43:57;8.30;99.90
26537;DHT22;14204;51.262;5.488;2022-11-21T07:46:23;8.30;99.90
26537;DHT22;14204;51.262;5.488;2022-11-21T07:48:49;8.30;99.90
26537;DHT22;14204;51.262;5.488;2022-11-21T07:51:15;8.20;99.90
26537;DHT22;14204;51.262;5.488;2022-11-21T07:53:40;8.20;99.90
26537;DHT22;14204;51.262;5.488;2022-11-21T07:56:06;8.30;99.90
26537;DHT22;14204;51.262;5.488;2022-11-21T07:58:34;8.40;99.90
26537;DHT22;14204;51.262;5.488;2022-11-21T08:01:03;8.40;99.90
26537;DHT22;14204;51.262;5.488;2022-11-21T08:03:30;8.40;99.90
26537;DHT22;14204;51.262;5.488;2022-11-21T08:05:56;8.40;99.90
26537;DHT22;14204;51.262;5.488;2022-11-21T08:08:25;8.40;99.90
26537;DHT22;14204;51.262;5.488;2022-11-21T08:10:50;8.40;99.90
26537;DHT22;14204;51.262;5.488;2022-11-21T08:13:16;8.40;99.90
26537;DHT22;14204;51.262;5.488;2022-11-21T08:15:41;8.40;99.90
26537;DHT22;14204;51.262;5.488;2022-11-21T08:18:16;8.40;99.90
26537;DHT22;14204;51.262;5.488;2022-11-21T08:20:45;8.50;99.90
26537;DHT22;14204;51.262;5.488;2022-11-21T08:23:11;8.40;99.90
26537;DHT22;14204;51.262;5.488;2022-11-21T08:25:38;8.40;99.90
26537;DHT22;14204;51.262;5.488;2022-11-21T08:28:04;8.40;99.90
26537;DHT22;14204;51.262;5.488;2022-11-21T08:30:30;8.40;99.90
26537;DHT22;14204;51.262;5.488;2022-11-21T08:32:57;8.30;99.90
26537;DHT22;14204;51.262;5.488;2022-11-21T08:35:27;8.30;99.90
26537;DHT22;14204;51.262;5.488;2022-11-21T08:37:59;8.30;99.90
26537;DHT22;14204;51.262;5.488;2022-11-21T08:40:27;8.30;99.90
26537;DHT22;14204;51.262;5.488;2022-11-21T08:42:59;8.30;99.90
26537;DHT22;14204;51.262;5.488;2022-11-21T08:45:25;8.20;99.90
26537;DHT22;14204;51.262;5.488;2022-11-21T08:47:52;8.20;99.90
26537;DHT22;14204;51.262;5.488;2022-11-21T08:50:18;8.20;99.90
26537;DHT22;14204;51.262;5.488;2022-11-21T08:52:43;8.30;99.90
26537;DHT22;14204;51.262;5.488;2022-11-21T08:55:09;8.20;99.90
26537;DHT22;14204;51.262;5.488;2022-11-21T08:57:38;8.10;99.90
26537;DHT22;14204;51.262;5.488;2022-11-21T09:00:05;8.00;99.90
26537;DHT22;14204;51.262;5.488;2022-11-21T09:02:31;8.10;99.90
26537;DHT22;14204;51.262;5.488;2022-11-21T09:04:56;8.10;99.90
26537;DHT22;14204;51.262;5.488;2022-11-21T09:07:22;8.10;99.90
26537;DHT22;14204;51.262;5.488;2022-11-21T09:09:48;8.20;99.90
26537;DHT22;14204;51.262;5.488;2022-11-21T09:12:14;8.20;99.90
26537;DHT22;14204;51.262;5.488;2022-11-21T09:14:39;8.20;99.90
26537;DHT22;14204;51.262;5.488;2022-11-21T09:17:23;8.30;99.90
26537;DHT22;14204;51.262;5.488;2022-11-21T09:20:08;8.30;99.90
26537;DHT22;14204;51.262;5.488;2022-11-21T09:22:33;8.40;99.90
26537;DHT22;14204;51.262;5.488;2022-11-21T09:24:59;8.40;99.90
26537;DHT22;14204;51.262;5.488;2022-11-21T09:27:25;8.40;99.90
26537;DHT22;14204;51.262;5.488;2022-11-21T09:29:50;8.40;99.90
26537;DHT22;14204;51.262;5.488;2022-11-21T09:32:16;8.40;99.90
26537;DHT22;14204;51.262;5.488;2022-11-21T09:34:41;8.50;99.90
26537;DHT22;14204;51.262;5.488;2022-11-21T09:37:07;8.60;99.90
26537;DHT22;14204;51.262;5.488;2022-11-21T09:39:33;8.60;99.90
26537;DHT22;14204;51.262;5.488;2022-11-21T09:45:06;8.70;99.90
26537;DHT22;14204;51.262;5.488;2022-11-21T09:47:41;8.70;99.90
26537;DHT22;14204;51.262;5.488;2022-11-21T10:01:16;8.90;99.90
26537;DHT22;14204;51.262;5.488;2022-11-21T10:03:48;9.00;99.90
26537;DHT22;14204;51.262;5.488;2022-11-21T10:06:41;9.00;99.90
26537;DHT22;14204;51.262;5.488;2022-11-21T10:12:10;9.00;99.90
26537;DHT22;14204;51.262;5.488;2022-11-21T10:25:36;9.30;99.90
26537;DHT22;14204;51.262;5.488;2022-11-21T10:30:42;9.20;99.90
26537;DHT22;14204;51.262;5.488;2022-11-21T10:33:14;9.30;99.90
26537;DHT22;14204;51.262;5.488;2022-11-21T10:35:50;9.40;99.90
26537;DHT22;14204;51.262;5.488;2022-11-21T10:38:20;9.30;99.90
26537;DHT22;14204;51.262;5.488;2022-11-21T10:41:10;9.40;99.90
26537;DHT22;14204;51.262;5.488;2022-11-21T10:43:52;9.30;99.90
26537;DHT22;14204;51.262;5.488;2022-11-21T10:47:00;9.40;99.90
26537;DHT22;14204;51.262;5.488;2022-11-21T10:49:29;9.50;99.90
26537;DHT22;14204;51.262;5.488;2022-11-21T10:52:13;9.50;99.90
26537;DHT22;14204;51.262;5.488;2022-11-21T10:57:31;9.50;99.90
26537;DHT22;14204;51.262;5.488;2022-11-21T11:00:13;9.40;99.90
26537;DHT22;14204;51.262;5.488;2022-11-21T11:05:54;9.60;99.90
26537;DHT22;14204;51.262;5.488;2022-11-21T11:08:23;9.60;99.90
26537;DHT22;14204;51.262;5.488;2022-11-21T11:11:06;9.60;99.90
26537;DHT22;14204;51.262;5.488;2022-11-21T11:16:25;9.60;99.90
26537;DHT22;14204;51.262;5.488;2022-11-21T11:29:18;9.50;99.90
26537;DHT22;14204;51.262;5.488;2022-11-21T11:31:54;9.50;99.90
26537;DHT22;14204;51.262;5.488;2022-11-21T11:34:21;9.40;99.90
26537;DHT22;14204;51.262;5.488;2022-11-21T11:40:18;9.60;99.90
26537;DHT22;14204;51.262;5.488;2022-11-21T11:48:30;9.60;99.90
26537;DHT22;14204;51.262;5.488;2022-11-21T11:51:00;9.50;99.90
26537;DHT22;14204;51.262;5.488;2022-11-21T11:58:44;9.50;99.90
26537;DHT22;14204;51.262;5.488;2022-11-21T12:04:14;9.40;99.90
26537;DHT22;14204;51.262;5.488;2022-11-21T12:07:03;9.40;99.90
26537;DHT22;14204;51.262;5.488;2022-11-21T12:23:19;9.50;99.90
26537;DHT22;14204;51.262;5.488;2022-11-21T12:26:14;9.50;99.90
26537;DHT22;14204;51.262;5.488;2022-11-21T12:31:20;9.60;99.90
26537;DHT22;14204;51.262;5.488;2022-11-21T12:34:16;9.50;99.90
26537;DHT22;14204;51.262;5.488;2022-11-21T12:37:09;9.60;99.90
26537;DHT22;14204;51.262;5.488;2022-11-21T12:39:47;9.80;99.90
26537;DHT22;14204;51.262;5.488;2022-11-21T12:42:38;9.80;99.90
26537;DHT22;14204;51.262;5.488;2022-11-21T12:45:38;9.70;99.90
26537;DHT22;14204;51.262;5.488;2022-11-21T12:57:14;9.80;99.90
26537;DHT22;14204;51.262;5.488;2022-11-21T13:05:10;9.60;99.90
26537;DHT22;14204;51.262;5.488;2022-11-21T13:07:37;9.70;99.90
26537;DHT22;14204;51.262;5.488;2022-11-21T13:10:11;9.60;99.90
26537;DHT22;14204;51.262;5.488;2022-11-21T13:12:46;9.70;99.90
26537;DHT22;14204;51.262;5.488;2022-11-21T13:15:23;9.70;99.90
26537;DHT22;14204;51.262;5.488;2022-11-21T13:18:12;9.70;99.90
26537;DHT22;14204;51.262;5.488;2022-11-21T13:20:48;9.70;99.90
26537;DHT22;14204;51.262;5.488;2022-11-21T13:26:01;9.70;99.90
26537;DHT22;14204;51.262;5.488;2022-11-21T13:28:31;9.70;99.90
26537;DHT22;14204;51.262;5.488;2022-11-21T13:30:59;9.70;99.90
26537;DHT22;14204;51.262;5.488;2022-11-21T13:47:02;9.70;99.90
26537;DHT22;14204;51.262;5.488;2022-11-21T13:50:42;9.60;99.90
26537;DHT22;14204;51.262;5.488;2022-11-21T13:55:46;9.60;99.90
26537;DHT22;14204;51.262;5.488;2022-11-21T14:09:50;9.60;99.90
26537;DHT22;14204;51.262;5.488;2022-11-21T14:12:37;9.70;99.90
26537;DHT22;14204;51.262;5.488;2022-11-21T14:17:41;9.70;99.90
26537;DHT22;14204;51.262;5.488;2022-11-21T14:20:18;9.60;99.90
26537;DHT22;14204;51.262;5.488;2022-11-21T14:25:28;9.70;99.90
26537;DHT22;14204;51.262;5.488;2022-11-21T14:27:55;9.70;99.90
26537;DHT22;14204;51.262;5.488;2022-11-21T14:30:36;9.70;99.90
26537;DHT22;14204;51.262;5.488;2022-11-21T14:33:25;9.70;99.90
26537;DHT22;14204;51.262;5.488;2022-11-21T14:36:01;9.60;99.90
26537;DHT22;14204;51.262;5.488;2022-11-21T14:38:29;9.60;99.90
26537;DHT22;14204;51.262;5.488;2022-11-21T14:41:30;9.60;99.90
26537;DHT22;14204;51.262;5.488;2022-11-21T14:46:33;9.60;99.90
26537;DHT22;14204;51.262;5.488;2022-11-21T14:49:29;9.60;99.90
26537;DHT22;14204;51.262;5.488;2022-11-21T14:54:45;9.60;99.90
26537;DHT22;14204;51.262;5.488;2022-11-21T14:57:27;9.50;99.90
26537;DHT22;14204;51.262;5.488;2022-11-21T14:59:54;9.50;99.90
26537;DHT22;14204;51.262;5.488;2022-11-21T15:02:23;9.50;99.90
26537;DHT22;14204;51.262;5.488;2022-11-21T15:04:50;9.60;99.90
26537;DHT22;14204;51.262;5.488;2022-11-21T15:07:19;9.60;99.90
26537;DHT22;14204;51.262;5.488;2022-11-21T15:09:45;9.60;99.90
26537;DHT22;14204;51.262;5.488;2022-11-21T15:12:11;9.60;99.90
26537;DHT22;14204;51.262;5.488;2022-11-21T15:14:43;9.60;99.90
26537;DHT22;14204;51.262;5.488;2022-11-21T15:17:13;9.50;99.90
26537;DHT22;14204;51.262;5.488;2022-11-21T15:19:41;9.50;99.90
26537;DHT22;14204;51.262;5.488;2022-11-21T15:22:22;9.50;99.90
26537;DHT22;14204;51.262;5.488;2022-11-21T15:24:50;9.40;99.90
26537;DHT22;14204;51.262;5.488;2022-11-21T15:37:52;9.50;99.90
26537;DHT22;14204;51.262;5.488;2022-11-21T15:40:19;9.40;99.90
26537;DHT22;14204;51.262;5.488;2022-11-21T15:42:45;9.50;99.90
26537;DHT22;14204;51.262;5.488;2022-11-21T15:47:39;9.40;99.90
26537;DHT22;14204;51.262;5.488;2022-11-21T15:50:05;9.40;99.90
26537;DHT22;14204;51.262;5.488;2022-11-21T15:52:35;9.40;99.90
26537;DHT22;14204;51.262;5.488;2022-11-21T15:55:11;9.50;99.90
26537;DHT22;14204;51.262;5.488;2022-11-21T15:57:38;9.50;99.90
26537;DHT22;14204;51.262;5.488;2022-11-21T16:00:04;9.50;99.90
26537;DHT22;14204;51.262;5.488;2022-11-21T16:02:29;9.50;99.90
26537;DHT22;14204;51.262;5.488;2022-11-21T16:04:55;9.40;99.90
26537;DHT22;14204;51.262;5.488;2022-11-21T16:07:21;9.40;99.90
26537;DHT22;14204;51.262;5.488;2022-11-21T16:09:46;9.40;99.90
26537;DHT22;14204;51.262;5.488;2022-11-21T16:12:12;9.50;99.90
26537;DHT22;14204;51.262;5.488;2022-11-21T16:14:38;9.50;99.90
26537;DHT22;14204;51.262;5.488;2022-11-21T16:17:03;9.50;99.90
26537;DHT22;14204;51.262;5.488;2022-11-21T16:19:29;9.50;99.90
26537;DHT22;14204;51.262;5.488;2022-11-21T16:21:55;9.40;99.90
26537;DHT22;14204;51.262;5.488;2022-11-21T16:24:20;9.40;99.90
26537;DHT22;14204;51.262;5.488;2022-11-21T16:26:46;9.40;99.90
26537;DHT22;14204;51.262;5.488;2022-11-21T16:29:13;9.40;99.90
26537;DHT22;14204;51.262;5.488;2022-11-21T16:31:39;9.30;99.90
26537;DHT22;14204;51.262;5.488;2022-11-21T16:34:04;9.30;99.90
26537;DHT22;14204;51.262;5.488;2022-11-21T16:36:31;9.40;99.90
26537;DHT22;14204;51.262;5.488;2022-11-21T16:38:56;9.30;99.90
26537;DHT22;14204;51.262;5.488;2022-11-21T16:41:23;9.30;99.90
26537;DHT22;14204;51.262;5.488;2022-11-21T16:43:53;9.30;99.90
26537;DHT22;14204;51.262;5.488;2022-11-21T16:46:21;9.40;99.90
26537;DHT22;14204;51.262;5.488;2022-11-21T16:48:47;9.30;99.90
26537;DHT22;14204;51.262;5.488;2022-11-21T16:51:17;9.20;99.90
26537;DHT22;14204;51.262;5.488;2022-11-21T16:53:43;9.20;99.90
26537;DHT22;14204;51.262;5.488;2022-11-21T16:56:09;9.30;99.90
26537;DHT22;14204;51.262;5.488;2022-11-21T16:58:36;9.30;99.90
26537;DHT22;14204;51.262;5.488;2022-11-21T17:01:15;9.30;99.90
26537;DHT22;14204;51.262;5.488;2022-11-21T17:03:43;9.30;99.90
26537;DHT22;14204;51.262;5.488;2022-11-21T17:06:10;9.20;99.90
26537;DHT22;14204;51.262;5.488;2022-11-21T17:08:37;9.20;99.90
26537;DHT22;14204;51.262;5.488;2022-11-21T17:13:40;9.20;99.90
26537;DHT22;14204;51.262;5.488;2022-11-21T17:16:07;9.20;99.90
26537;DHT22;14204;51.262;5.488;2022-11-21T17:18:33;9.20;99.90
26537;DHT22;14204;51.262;5.488;2022-11-21T17:21:02;9.20;99.90
26537;DHT22;14204;51.262;5.488;2022-11-21T17:23:32;9.10;99.90
26537;DHT22;14204;51.262;5.488;2022-11-21T17:26:03;9.20;99.90
26537;DHT22;14204;51.262;5.488;2022-11-21T17:28:30;9.20;99.90
26537;DHT22;14204;51.262;5.488;2022-11-21T17:30:56;9.20;99.90
26537;DHT22;14204;51.262;5.488;2022-11-21T17:33:22;9.20;99.90
26537;DHT22;14204;51.262;5.488;2022-11-21T17:35:47;9.10;99.90
26537;DHT22;14204;51.262;5.488;2022-11-21T17:38:13;9.20;99.90
26537;DHT22;14204;51.262;5.488;2022-11-21T17:40:39;9.10;99.90
26537;DHT22;14204;51.262;5.488;2022-11-21T17:43:04;9.10;99.90
26537;DHT22;14204;51.262;5.488;2022-11-21T17:45:30;9.20;99.90
26537;DHT22;14204;51.262;5.488;2022-11-21T17:47:55;9.20;99.90
26537;DHT22;14204;51.262;5.488;2022-11-21T17:50:21;9.10;99.90
26537;DHT22;14204;51.262;5.488;2022-11-21T17:52:47;9.10;99.90
26537;DHT22;14204;51.262;5.488;2022-11-21T17:55:14;9.10;99.90
26537;DHT22;14204;51.262;5.488;2022-11-21T17:57:40;9.10;99.90
26537;DHT22;14204;51.262;5.488;2022-11-21T18:00:06;9.10;99.90
26537;DHT22;14204;51.262;5.488;2022-11-21T18:02:31;9.10;99.90
26537;DHT22;14204;51.262;5.488;2022-11-21T18:04:57;9.00;99.90
26537;DHT22;14204;51.262;5.488;2022-11-21T18:07:23;9.00;99.90
26537;DHT22;14204;51.262;5.488;2022-11-21T18:09:48;9.10;99.90
26537;DHT22;14204;51.262;5.488;2022-11-21T18:12:14;9.10;99.90
26537;DHT22;14204;51.262;5.488;2022-11-21T18:14:39;9.10;99.90
26537;DHT22;14204;51.262;5.488;2022-11-21T18:17:05;9.10;99.90
26537;DHT22;14204;51.262;5.488;2022-11-21T18:19:30;9.10;99.90
26537;DHT22;14204;51.262;5.488;2022-11-21T18:21:56;9.10;99.90
26537;DHT22;14204;51.262;5.488;2022-11-21T18:24:22;9.10;99.90
26537;DHT22;14204;51.262;5.488;2022-11-21T18:26:48;9.00;99.90
26537;DHT22;14204;51.262;5.488;2022-11-21T18:29:13;9.00;99.90
26537;DHT22;14204;51.262;5.488;2022-11-21T18:31:39;9.00;99.90
26537;DHT22;14204;51.262;5.488;2022-11-21T18:34:08;9.10;99.90
26537;DHT22;14204;51.262;5.488;2022-11-21T18:36:33;9.00;99.90